地図

経路データ

SID SEASON NUMBER BASIN SUBBASIN NAME ISO_TIME NATURE LAT LON WMO_WIND WMO_PRES WMO_AGENCY TRACK_TYPE DIST2LAND LANDFALL IFLAG USA_AGENCY USA_ATCF_ID USA_LAT USA_LON USA_RECORD USA_STATUS USA_WIND USA_PRES USA_SSHS USA_R34_NE USA_R34_SE USA_R34_SW USA_R34_NW USA_R50_NE USA_R50_SE USA_R50_SW USA_R50_NW USA_R64_NE USA_R64_SE USA_R64_SW USA_R64_NW USA_POCI USA_ROCI USA_RMW USA_EYE TOKYO_LAT TOKYO_LON TOKYO_GRADE TOKYO_WIND TOKYO_PRES TOKYO_R50_DIR TOKYO_R50_LONG TOKYO_R50_SHORT TOKYO_R30_DIR TOKYO_R30_LONG TOKYO_R30_SHORT TOKYO_LAND CMA_LAT CMA_LON CMA_CAT CMA_WIND CMA_PRES HKO_LAT HKO_LON HKO_CAT HKO_WIND HKO_PRES NEWDELHI_LAT NEWDELHI_LON NEWDELHI_GRADE NEWDELHI_WIND NEWDELHI_PRES NEWDELHI_CI NEWDELHI_DP NEWDELHI_POCI REUNION_LAT REUNION_LON REUNION_TYPE REUNION_WIND REUNION_PRES REUNION_TNUM REUNION_CI REUNION_RMW REUNION_R34_NE REUNION_R34_SE REUNION_R34_SW REUNION_R34_NW REUNION_R50_NE REUNION_R50_SE REUNION_R50_SW REUNION_R50_NW REUNION_R64_NE REUNION_R64_SE REUNION_R64_SW REUNION_R64_NW BOM_LAT BOM_LON BOM_TYPE BOM_WIND BOM_PRES BOM_TNUM BOM_CI BOM_RMW BOM_R34_NE BOM_R34_SE BOM_R34_SW BOM_R34_NW BOM_R50_NE BOM_R50_SE BOM_R50_SW BOM_R50_NW BOM_R64_NE BOM_R64_SE BOM_R64_SW BOM_R64_NW BOM_ROCI BOM_POCI BOM_EYE BOM_POS_METHOD BOM_PRES_METHOD NADI_LAT NADI_LON NADI_CAT NADI_WIND NADI_PRES WELLINGTON_LAT WELLINGTON_LON WELLINGTON_WIND WELLINGTON_PRES DS824_LAT DS824_LON DS824_STAGE DS824_WIND DS824_PRES TD9636_LAT TD9636_LON TD9636_STAGE TD9636_WIND TD9636_PRES TD9635_LAT TD9635_LON TD9635_WIND TD9635_PRES TD9635_ROCI NEUMANN_LAT NEUMANN_LON NEUMANN_CLASS NEUMANN_WIND NEUMANN_PRES MLC_LAT MLC_LON MLC_CLASS MLC_WIND MLC_PRES USA_GUST BOM_GUST BOM_GUST_PER REUNION_GUST REUNION_GUST_PER USA_SEAHGT USA_SEARAD_NE USA_SEARAD_SE USA_SEARAD_SW USA_SEARAD_NW STORM_SPEED STORM_DIR
1938290N32296 1938 60 NA NA NOT_NAMED 1938-10-16 12:00:00 TS 32.0000 -64.0000 25 hurdat_atl main 1139 1139 O_____________ hurdat_atl AL081938 32.0000 -64.0000 TD 25 -1 5 39
1938290N32296 1938 60 NA NA NOT_NAMED 1938-10-16 15:00:00 TS 32.2101 -63.7952 main 1147 1143 P_____________ AL081938 32.2101 -63.7952 TD 25 -1 5 40
1938290N32296 1938 60 NA NA NOT_NAMED 1938-10-16 18:00:00 TS 32.4000 -63.6000 25 hurdat_atl main 1156 1156 O_____________ hurdat_atl AL081938 32.4000 -63.6000 TD 25 -1 5 42
1938290N32296 1938 60 NA NA NOT_NAMED 1938-10-16 21:00:00 TS 32.5575 -63.4274 main 1165 1163 P_____________ AL081938 32.5575 -63.4274 TD 25 -1 4 40
1938290N32296 1938 60 NA NA NOT_NAMED 1938-10-17 00:00:00 TS 32.7000 -63.3000 25 hurdat_atl main 1163 1148 O_____________ hurdat_atl AL081938 32.7000 -63.3000 TD 25 -1 4 31
1938290N32296 1938 60 NA NA NOT_NAMED 1938-10-17 03:00:00 TS 32.8799 -63.1975 main 1148 1138 P_____________ AL081938 32.8799 -63.1975 TD 25 -1 3 16
1938290N32296 1938 60 NA NA NOT_NAMED 1938-10-17 06:00:00 TS 33.0000 -63.2000 25 hurdat_atl main 1138 1133 O_____________ hurdat_atl AL081938 33.0000 -63.2000 TD 25 -1 2 327
1938290N32296 1938 60 NA NA NOT_NAMED 1938-10-17 09:00:00 TS 33.0170 -63.3018 main 1133 1124 P_____________ AL081938 33.0170 -63.3018 TD 25 -1 3 253
1938290N32296 1938 60 NA NA NOT_NAMED 1938-10-17 12:00:00 TS 32.9000 -63.6000 25 1008 hurdat_atl main 1130 1100 O_____________ hurdat_atl AL081938 32.9000 -63.6000 TD 25 1008 -1 8 244
1938290N32296 1938 60 NA NA NOT_NAMED 1938-10-17 15:00:00 TS 32.6898 -64.1090 main 1100 1057 P_____________ AL081938 32.6898 -64.1090 TD 25 -1 12 239
1938290N32296 1938 60 NA NA NOT_NAMED 1938-10-17 18:00:00 TS 32.3000 -64.8000 25 hurdat_atl main 1057 1023 O_____________ hurdat_atl AL081938 32.3000 -64.8000 TD 25 -1 16 231
1938290N32296 1938 60 NA NA NOT_NAMED 1938-10-17 21:00:00 TS 31.7023 -65.5631 main 1020 997 P_____________ AL081938 31.7023 -65.5631 TD 27 -1 19 226
1938290N32296 1938 60 NA NA NOT_NAMED 1938-10-18 00:00:00 TS 31.0000 -66.4000 30 hurdat_atl main 997 978 O_____________ hurdat_atl AL081938 31.0000 -66.4000 TD 30 -1 20 226
1938290N32296 1938 60 NA NA NOT_NAMED 1938-10-18 03:00:00 TS 30.3196 -67.2423 main 985 962 P_____________ AL081938 30.3196 -67.2423 TD 30 -1 20 228
1938290N32296 1938 60 NA NA NOT_NAMED 1938-10-18 06:00:00 TS 29.7000 -68.1000 30 hurdat_atl main 962 940 O_____________ hurdat_atl AL081938 29.7000 -68.1000 TD 30 -1 19 234
1938290N32296 1938 60 NA NA NOT_NAMED 1938-10-18 09:00:00 TS 29.1977 -68.9944 main 935 908 P_____________ AL081938 29.1977 -68.9944 TD 30 -1 17 239
1938290N32296 1938 60 NA NA NOT_NAMED 1938-10-18 12:00:00 TS 28.8000 -69.8000 30 1007 hurdat_atl main 908 843 O_____________ hurdat_atl AL081938 28.8000 -69.8000 TD 30 1007 -1 14 240
1938290N32296 1938 60 NA NA NOT_NAMED 1938-10-18 15:00:00 TS 28.4766 -70.3938 main 843 785 P_____________ AL081938 28.4766 -70.3938 TD 30 -1 11 238
1938290N32296 1938 60 NA NA NOT_NAMED 1938-10-18 18:00:00 TS 28.2000 -70.9000 30 hurdat_atl main 785 726 O_____________ hurdat_atl AL081938 28.2000 -70.9000 TD 30 -1 11 237
1938290N32296 1938 60 NA NA NOT_NAMED 1938-10-18 21:00:00 TS 27.8990 -71.3968 main 726 659 P_____________ AL081938 27.8990 -71.3968 TD 32 -1 11 238
1938290N32296 1938 60 NA NA NOT_NAMED 1938-10-19 00:00:00 TS 27.6000 -72.0000 35 hurdat_atl main 659 573 O_____________ hurdat_atl AL081938 27.6000 -72.0000 TS 35 0 14 245
1938290N32296 1938 60 NA NA NOT_NAMED 1938-10-19 03:00:00 TS 27.2925 -72.8326 main 573 478 P_____________ AL081938 27.2925 -72.8326 TS 35 0 17 249
1938290N32296 1938 60 NA NA NOT_NAMED 1938-10-19 06:00:00 TS 27.0000 -73.8000 35 hurdat_atl main 469 366 O_____________ hurdat_atl AL081938 27.0000 -73.8000 TS 35 0 19 252
1938290N32296 1938 60 NA NA NOT_NAMED 1938-10-19 09:00:00 TS 26.7057 -74.8455 main 366 269 P_____________ AL081938 26.7057 -74.8455 TS 35 0 19 254
1938290N32296 1938 60 NA NA NOT_NAMED 1938-10-19 12:00:00 TS 26.5000 -75.8000 35 hurdat_atl main 269 216 O_____________ hurdat_atl AL081938 26.5000 -75.8000 TS 35 0 15 260
1938290N32296 1938 60 NA NA NOT_NAMED 1938-10-19 15:00:00 TS 26.4465 -76.4743 main 208 185 P_____________ AL081938 26.4465 -76.4743 TS 35 0 11 270
1938290N32296 1938 60 NA NA NOT_NAMED 1938-10-19 18:00:00 TS 26.5000 -77.0000 35 hurdat_atl main 185 164 O_____________ hurdat_atl AL081938 26.5000 -77.0000 TS 35 0 10 277
1938290N32296 1938 60 NA NA NOT_NAMED 1938-10-19 21:00:00 TS 26.5548 -77.5302 main 174 167 P_____________ AL081938 26.5548 -77.5302 TS 35 0 9 283
1938290N32296 1938 60 NA NA NOT_NAMED 1938-10-20 00:00:00 TS 26.7000 -78.0000 35 hurdat_atl main 178 150 O_____________ hurdat_atl AL081938 26.7000 -78.0000 TS 35 0 9 296
1938290N32296 1938 60 NA NA NOT_NAMED 1938-10-20 03:00:00 TS 26.9701 -78.4819 main 150 126 P_____________ AL081938 26.9701 -78.4819 TS 35 0 9 310
1938290N32296 1938 60 NA NA NOT_NAMED 1938-10-20 06:00:00 TS 27.3000 -78.8000 35 hurdat_atl main 131 126 O_____________ hurdat_atl AL081938 27.3000 -78.8000 TS 35 0 7 331
1938290N32296 1938 60 NA NA NOT_NAMED 1938-10-20 09:00:00 TS 27.5622 -78.8549 main 135 135 P_____________ AL081938 27.5622 -78.8549 TS 35 0 6 8
1938290N32296 1938 60 NA NA NOT_NAMED 1938-10-20 12:00:00 TS 27.9000 -78.7000 35 1005 hurdat_atl main 167 167 O_____________ hurdat_atl AL081938 27.9000 -78.7000 TS 35 1005 0 9 24
1938290N32296 1938 60 NA NA NOT_NAMED 1938-10-20 15:00:00 TS 28.4202 -78.4306 main 205 204 P_____________ AL081938 28.4202 -78.4306 TS 32 1004 -1 12 26
1938290N32296 1938 60 NA NA NOT_NAMED 1938-10-20 18:00:00 TS 29.0000 -78.1000 30 hurdat_atl main 240 240 I_____________ hurdat_atl AL081938 29.0000 -78.1000 TD 30 1004 -1 12 26
1938290N32296 1938 60 NA NA NOT_NAMED 1938-10-20 21:00:00 TS 29.5224 -77.8274 main 285 285 P_____________ AL081938 29.5224 -77.8274 TD 30 1004 -1 11 24
1938290N32296 1938 60 NA NA NOT_NAMED 1938-10-21 00:00:00 TS 30.0000 -77.6000 30 1004 hurdat_atl main 327 O_____________ hurdat_atl AL081938 30.0000 -77.6000 TD 30 1004 -1 10 23

IBTrACS Databaseについて

本データベースは、米国NOAAが公開する1842年以降の世界の熱帯低気圧のベストトラックデータアーカイブInternational Best Track Archive for Climate Stewardship (IBTrACS)を、ウェブで閲覧しやすい形式に変換したものです。

最終更新日:2021-10-21